Archival Weather

Downtown Manhattan/Wall St

New York, Downtown Manhattan/Wall St (KJRB)

Report from: Friday, February 23, 2024 4:56 PM EST
Current time: Wednesday, May 29, 2024 8:26 PM EDT

Current weather – Weather history – Daily summaries
Weather forecast

Temperature7.8°C (46.0°F)
Wind chill6.6°C (43.8°F)
Dew point3.9°C (39.0°F)
Winds 4 kts (2.1 m/s, 4.6 mph) West-Southwest (250°)
Visibility10 mi. (16.1 km)
Clouds Sky clear
Altimeter29.46 in.Hg (998 mB)
Relative humidity76 %
Density altitude-207 ft. (-63 m)
Sea-level pressure99.8 kPa (998 mB, 29.46 in.Hg)
Remarks Fully automated report
System requires maintenance
Automated weather observing station with precipitation discriminator
Precipitation sensor not operating
Flight conditions Visual Meteorological Conditions
Raw dataKJRB 232156Z AUTO 25004KT 10SM CLR 08/04 A2946 RMK AO2 SLP975 T00780039 PNO $
An error has occurred. This application may no longer respond until reloaded. Reload 🗙